sensor_id;sensor_type;location;lat;lon;timestamp;temperature;humidity
44271;DHT22;29963;44.594;11.368;2022-09-16T00:00:44;24.40;99.90
44271;DHT22;29963;44.594;11.368;2022-09-16T00:03:11;24.40;99.90
44271;DHT22;29963;44.594;11.368;2022-09-16T00:05:44;24.30;99.90
44271;DHT22;29963;44.594;11.368;2022-09-16T00:08:10;24.20;99.90
44271;DHT22;29963;44.594;11.368;2022-09-16T00:10:36;24.20;99.90
44271;DHT22;29963;44.594;11.368;2022-09-16T00:13:03;24.20;99.90
44271;DHT22;29963;44.594;11.368;2022-09-16T00:15:28;24.20;99.90
44271;DHT22;29963;44.594;11.368;2022-09-16T00:17:54;24.20;99.90
44271;DHT22;29963;44.594;11.368;2022-09-16T00:20:20;24.10;99.90
44271;DHT22;29963;44.594;11.368;2022-09-16T00:22:45;24.10;99.90
44271;DHT22;29963;44.594;11.368;2022-09-16T00:25:11;24.10;99.90
44271;DHT22;29963;44.594;11.368;2022-09-16T00:27:37;24.10;99.90
44271;DHT22;29963;44.594;11.368;2022-09-16T00:30:03;24.10;99.90
44271;DHT22;29963;44.594;11.368;2022-09-16T00:32:28;24.10;99.90
44271;DHT22;29963;44.594;11.368;2022-09-16T00:34:57;24.10;99.90
44271;DHT22;29963;44.594;11.368;2022-09-16T00:37:23;24.10;99.90
44271;DHT22;29963;44.594;11.368;2022-09-16T00:39:49;24.10;99.90
44271;DHT22;29963;44.594;11.368;2022-09-16T00:42:16;24.10;99.90
44271;DHT22;29963;44.594;11.368;2022-09-16T00:47:30;24.10;99.90
44271;DHT22;29963;44.594;11.368;2022-09-16T00:50:07;24.10;99.90
44271;DHT22;29963;44.594;11.368;2022-09-16T00:52:34;24.10;99.90
44271;DHT22;29963;44.594;11.368;2022-09-16T00:55:03;24.10;99.90
44271;DHT22;29963;44.594;11.368;2022-09-16T00:57:30;24.10;99.90
44271;DHT22;29963;44.594;11.368;2022-09-16T00:59:56;24.10;99.90
44271;DHT22;29963;44.594;11.368;2022-09-16T01:02:23;24.10;99.90
44271;DHT22;29963;44.594;11.368;2022-09-16T01:05:00;24.10;99.90
44271;DHT22;29963;44.594;11.368;2022-09-16T01:07:32;24.10;99.90
44271;DHT22;29963;44.594;11.368;2022-09-16T01:09:58;24.10;99.90
44271;DHT22;29963;44.594;11.368;2022-09-16T01:12:27;24.10;99.90
44271;DHT22;29963;44.594;11.368;2022-09-16T01:14:54;24.10;99.90
44271;DHT22;29963;44.594;11.368;2022-09-16T01:17:45;24.10;99.90
44271;DHT22;29963;44.594;11.368;2022-09-16T01:31:20;24.10;99.90
44271;DHT22;29963;44.594;11.368;2022-09-16T01:34:16;24.10;99.90
44271;DHT22;29963;44.594;11.368;2022-09-16T01:43:12;24.00;99.90
44271;DHT22;29963;44.594;11.368;2022-09-16T01:51:03;24.00;99.90
44271;DHT22;29963;44.594;11.368;2022-09-16T01:53:34;24.00;99.90
44271;DHT22;29963;44.594;11.368;2022-09-16T01:56:21;24.10;99.90
44271;DHT22;29963;44.594;11.368;2022-09-16T02:02:04;24.00;99.90
44271;DHT22;29963;44.594;11.368;2022-09-16T02:04:38;24.00;99.90
44271;DHT22;29963;44.594;11.368;2022-09-16T02:07:06;24.00;99.90
44271;DHT22;29963;44.594;11.368;2022-09-16T02:09:40;24.00;99.90
44271;DHT22;29963;44.594;11.368;2022-09-16T02:12:11;24.00;99.90
44271;DHT22;29963;44.594;11.368;2022-09-16T02:14:41;24.00;99.90
44271;DHT22;29963;44.594;11.368;2022-09-16T02:17:13;24.10;99.90
44271;DHT22;29963;44.594;11.368;2022-09-16T02:19:45;24.00;99.90
44271;DHT22;29963;44.594;11.368;2022-09-16T02:22:17;24.00;99.90
44271;DHT22;29963;44.594;11.368;2022-09-16T02:24:46;24.00;99.90
44271;DHT22;29963;44.594;11.368;2022-09-16T02:27:15;24.10;99.90
44271;DHT22;29963;44.594;11.368;2022-09-16T02:29:48;24.00;99.90
44271;DHT22;29963;44.594;11.368;2022-09-16T02:32:17;24.00;99.90
44271;DHT22;29963;44.594;11.368;2022-09-16T02:34:50;24.00;99.90
44271;DHT22;29963;44.594;11.368;2022-09-16T02:37:41;24.00;99.90
44271;DHT22;29963;44.594;11.368;2022-09-16T02:40:18;24.00;99.90
44271;DHT22;29963;44.594;11.368;2022-09-16T02:42:46;24.00;99.90
44271;DHT22;29963;44.594;11.368;2022-09-16T02:45:12;24.00;99.90
44271;DHT22;29963;44.594;11.368;2022-09-16T02:50:26;23.80;99.90
44271;DHT22;29963;44.594;11.368;2022-09-16T02:53:01;23.80;99.90
44271;DHT22;29963;44.594;11.368;2022-09-16T02:55:44;23.70;99.90
44271;DHT22;29963;44.594;11.368;2022-09-16T02:58:13;23.70;99.90
44271;DHT22;29963;44.594;11.368;2022-09-16T03:00:44;23.60;99.90
44271;DHT22;29963;44.594;11.368;2022-09-16T03:03:11;23.60;99.90
44271;DHT22;29963;44.594;11.368;2022-09-16T03:08:22;23.50;99.90
44271;DHT22;29963;44.594;11.368;2022-09-16T03:10:48;23.50;99.90
44271;DHT22;29963;44.594;11.368;2022-09-16T03:13:40;23.50;99.90
44271;DHT22;29963;44.594;11.368;2022-09-16T03:16:14;23.50;99.90
44271;DHT22;29963;44.594;11.368;2022-09-16T03:21:46;23.50;99.90
44271;DHT22;29963;44.594;11.368;2022-09-16T03:27:17;23.50;99.90
44271;DHT22;29963;44.594;11.368;2022-09-16T03:32:53;23.30;99.90
44271;DHT22;29963;44.594;11.368;2022-09-16T03:37:56;22.90;99.90
44271;DHT22;29963;44.594;11.368;2022-09-16T03:40:23;22.80;99.90
44271;DHT22;29963;44.594;11.368;2022-09-16T03:42:49;22.80;99.90
44271;DHT22;29963;44.594;11.368;2022-09-16T03:45:17;22.80;99.90
44271;DHT22;29963;44.594;11.368;2022-09-16T03:47:48;22.80;99.90
44271;DHT22;29963;44.594;11.368;2022-09-16T03:50:16;22.90;99.90
44271;DHT22;29963;44.594;11.368;2022-09-16T03:52:42;22.90;99.90
44271;DHT22;29963;44.594;11.368;2022-09-16T03:55:08;23.00;99.90
44271;DHT22;29963;44.594;11.368;2022-09-16T03:57:35;23.00;99.90
44271;DHT22;29963;44.594;11.368;2022-09-16T04:00:02;23.00;99.90
44271;DHT22;29963;44.594;11.368;2022-09-16T04:02:32;23.10;99.90
44271;DHT22;29963;44.594;11.368;2022-09-16T04:04:59;23.10;99.90
44271;DHT22;29963;44.594;11.368;2022-09-16T04:07:24;23.00;99.90
44271;DHT22;29963;44.594;11.368;2022-09-16T04:09:50;23.00;99.90
44271;DHT22;29963;44.594;11.368;2022-09-16T04:12:16;23.00;99.90
44271;DHT22;29963;44.594;11.368;2022-09-16T04:14:41;23.00;99.90
44271;DHT22;29963;44.594;11.368;2022-09-16T04:17:07;23.00;99.90
44271;DHT22;29963;44.594;11.368;2022-09-16T04:19:33;22.90;99.90
44271;DHT22;29963;44.594;11.368;2022-09-16T04:21:58;22.80;99.90
44271;DHT22;29963;44.594;11.368;2022-09-16T04:24:24;22.80;99.90
44271;DHT22;29963;44.594;11.368;2022-09-16T04:26:50;22.80;99.90
44271;DHT22;29963;44.594;11.368;2022-09-16T04:29:15;22.90;99.90
44271;DHT22;29963;44.594;11.368;2022-09-16T04:31:42;22.90;99.90
44271;DHT22;29963;44.594;11.368;2022-09-16T04:34:08;22.90;99.90
44271;DHT22;29963;44.594;11.368;2022-09-16T04:36:36;22.90;99.90
44271;DHT22;29963;44.594;11.368;2022-09-16T04:39:02;22.90;99.90
44271;DHT22;29963;44.594;11.368;2022-09-16T04:41:28;22.90;99.90
44271;DHT22;29963;44.594;11.368;2022-09-16T04:43:55;23.00;99.90
44271;DHT22;29963;44.594;11.368;2022-09-16T04:46:23;23.00;99.90
44271;DHT22;29963;44.594;11.368;2022-09-16T04:48:50;23.00;99.90
44271;DHT22;29963;44.594;11.368;2022-09-16T04:51:16;22.90;99.90
44271;DHT22;29963;44.594;11.368;2022-09-16T04:53:44;22.90;99.90
44271;DHT22;29963;44.594;11.368;2022-09-16T04:56:24;22.90;99.90
44271;DHT22;29963;44.594;11.368;2022-09-16T04:58:52;22.90;99.90
44271;DHT22;29963;44.594;11.368;2022-09-16T05:01:23;22.90;99.90
44271;DHT22;29963;44.594;11.368;2022-09-16T05:03:52;22.90;99.90
44271;DHT22;29963;44.594;11.368;2022-09-16T05:06:38;22.90;99.90
44271;DHT22;29963;44.594;11.368;2022-09-16T05:09:05;22.90;99.90
44271;DHT22;29963;44.594;11.368;2022-09-16T05:11:33;22.90;99.90
44271;DHT22;29963;44.594;11.368;2022-09-16T05:14:04;22.90;99.90
44271;DHT22;29963;44.594;11.368;2022-09-16T05:16:30;22.90;99.90
44271;DHT22;29963;44.594;11.368;2022-09-16T05:18:58;22.90;99.90
44271;DHT22;29963;44.594;11.368;2022-09-16T05:21:26;22.90;99.90
44271;DHT22;29963;44.594;11.368;2022-09-16T05:23:53;22.90;99.90
44271;DHT22;29963;44.594;11.368;2022-09-16T05:26:25;23.00;99.90
44271;DHT22;29963;44.594;11.368;2022-09-16T05:28:54;23.00;99.90
44271;DHT22;29963;44.594;11.368;2022-09-16T05:31:22;23.00;99.90
44271;DHT22;29963;44.594;11.368;2022-09-16T05:33:59;23.10;99.90
44271;DHT22;29963;44.594;11.368;2022-09-16T05:36:30;23.10;99.90
44271;DHT22;29963;44.594;11.368;2022-09-16T05:38:55;23.10;99.90
44271;DHT22;29963;44.594;11.368;2022-09-16T05:41:22;23.10;99.90
44271;DHT22;29963;44.594;11.368;2022-09-16T05:43:48;23.10;99.90
44271;DHT22;29963;44.594;11.368;2022-09-16T05:46:22;23.20;99.90
44271;DHT22;29963;44.594;11.368;2022-09-16T05:48:49;23.20;99.90
44271;DHT22;29963;44.594;11.368;2022-09-16T05:51:20;23.30;99.90
44271;DHT22;29963;44.594;11.368;2022-09-16T05:53:47;23.30;99.90
44271;DHT22;29963;44.594;11.368;2022-09-16T05:56:15;23.30;99.90
44271;DHT22;29963;44.594;11.368;2022-09-16T05:58:41;23.40;99.90
44271;DHT22;29963;44.594;11.368;2022-09-16T06:01:09;23.40;99.90
44271;DHT22;29963;44.594;11.368;2022-09-16T06:03:36;23.40;99.90
44271;DHT22;29963;44.594;11.368;2022-09-16T06:06:05;23.40;99.90
44271;DHT22;29963;44.594;11.368;2022-09-16T06:08:33;23.40;99.90
44271;DHT22;29963;44.594;11.368;2022-09-16T06:11:07;23.40;99.90
44271;DHT22;29963;44.594;11.368;2022-09-16T06:13:33;23.40;99.90
44271;DHT22;29963;44.594;11.368;2022-09-16T06:15:59;23.50;99.90
44271;DHT22;29963;44.594;11.368;2022-09-16T06:18:26;23.60;99.90
44271;DHT22;29963;44.594;11.368;2022-09-16T06:20:53;23.70;99.90
44271;DHT22;29963;44.594;11.368;2022-09-16T06:23:18;23.70;99.90
44271;DHT22;29963;44.594;11.368;2022-09-16T06:25:45;23.80;99.90
44271;DHT22;29963;44.594;11.368;2022-09-16T06:28:11;23.90;99.90
44271;DHT22;29963;44.594;11.368;2022-09-16T06:30:40;24.00;99.90
44271;DHT22;29963;44.594;11.368;2022-09-16T06:33:06;24.10;99.90
44271;DHT22;29963;44.594;11.368;2022-09-16T06:35:34;24.10;99.90
44271;DHT22;29963;44.594;11.368;2022-09-16T06:38:00;24.20;99.90
44271;DHT22;29963;44.594;11.368;2022-09-16T06:40:26;24.20;99.90
44271;DHT22;29963;44.594;11.368;2022-09-16T06:42:54;24.20;99.90
44271;DHT22;29963;44.594;11.368;2022-09-16T06:45:21;24.30;99.90
44271;DHT22;29963;44.594;11.368;2022-09-16T06:47:46;24.30;99.90
44271;DHT22;29963;44.594;11.368;2022-09-16T06:50:12;24.30;99.90
44271;DHT22;29963;44.594;11.368;2022-09-16T06:52:38;24.30;99.90
44271;DHT22;29963;44.594;11.368;2022-09-16T06:55:04;24.30;99.90
44271;DHT22;29963;44.594;11.368;2022-09-16T06:57:30;24.40;99.90
44271;DHT22;29963;44.594;11.368;2022-09-16T06:59:55;24.50;99.90
44271;DHT22;29963;44.594;11.368;2022-09-16T07:02:21;24.50;99.90
44271;DHT22;29963;44.594;11.368;2022-09-16T07:04:48;24.60;99.90
44271;DHT22;29963;44.594;11.368;2022-09-16T07:07:13;24.70;99.90
44271;DHT22;29963;44.594;11.368;2022-09-16T07:09:39;24.80;99.90
44271;DHT22;29963;44.594;11.368;2022-09-16T07:12:06;24.80;99.90
44271;DHT22;29963;44.594;11.368;2022-09-16T07:14:31;24.90;99.90
44271;DHT22;29963;44.594;11.368;2022-09-16T07:16:57;24.90;99.90
44271;DHT22;29963;44.594;11.368;2022-09-16T07:19:24;24.90;99.90
44271;DHT22;29963;44.594;11.368;2022-09-16T07:21:50;25.00;99.90
44271;DHT22;29963;44.594;11.368;2022-09-16T07:24:16;25.10;99.90
44271;DHT22;29963;44.594;11.368;2022-09-16T07:26:42;25.10;99.90
44271;DHT22;29963;44.594;11.368;2022-09-16T07:29:13;25.20;99.90
44271;DHT22;29963;44.594;11.368;2022-09-16T07:31:40;25.40;99.90
44271;DHT22;29963;44.594;11.368;2022-09-16T07:34:07;25.40;99.90
44271;DHT22;29963;44.594;11.368;2022-09-16T07:36:40;25.40;99.90
44271;DHT22;29963;44.594;11.368;2022-09-16T07:39:07;25.40;99.90
44271;DHT22;29963;44.594;11.368;2022-09-16T07:41:38;25.40;99.90
44271;DHT22;29963;44.594;11.368;2022-09-16T07:44:05;25.40;99.90
44271;DHT22;29963;44.594;11.368;2022-09-16T07:46:33;25.50;99.90
44271;DHT22;29963;44.594;11.368;2022-09-16T07:49:00;25.60;99.90
44271;DHT22;29963;44.594;11.368;2022-09-16T07:51:27;25.60;99.90
44271;DHT22;29963;44.594;11.368;2022-09-16T07:54:01;25.70;99.90
44271;DHT22;29963;44.594;11.368;2022-09-16T07:56:30;25.80;99.90
44271;DHT22;29963;44.594;11.368;2022-09-16T07:58:57;25.70;99.90
44271;DHT22;29963;44.594;11.368;2022-09-16T08:01:23;25.80;99.90
44271;DHT22;29963;44.594;11.368;2022-09-16T08:03:49;25.70;99.90
44271;DHT22;29963;44.594;11.368;2022-09-16T08:06:18;25.70;99.90
44271;DHT22;29963;44.594;11.368;2022-09-16T08:08:45;25.80;99.90
44271;DHT22;29963;44.594;11.368;2022-09-16T08:11:12;25.90;99.90
44271;DHT22;29963;44.594;11.368;2022-09-16T08:13:39;26.00;99.90
44271;DHT22;29963;44.594;11.368;2022-09-16T08:16:07;26.00;99.90
44271;DHT22;29963;44.594;11.368;2022-09-16T08:18:33;26.10;99.90
44271;DHT22;29963;44.594;11.368;2022-09-16T08:21:14;26.20;99.90
44271;DHT22;29963;44.594;11.368;2022-09-16T08:23:40;26.30;99.90
44271;DHT22;29963;44.594;11.368;2022-09-16T08:26:07;26.30;99.90
44271;DHT22;29963;44.594;11.368;2022-09-16T08:28:34;26.40;99.90
44271;DHT22;29963;44.594;11.368;2022-09-16T08:31:00;26.30;99.90
44271;DHT22;29963;44.594;11.368;2022-09-16T08:33:27;26.30;99.90
44271;DHT22;29963;44.594;11.368;2022-09-16T08:36:04;26.40;99.90
44271;DHT22;29963;44.594;11.368;2022-09-16T08:38:31;26.40;99.90
44271;DHT22;29963;44.594;11.368;2022-09-16T08:41:24;26.40;99.90
44271;DHT22;29963;44.594;11.368;2022-09-16T08:46:54;26.50;99.90
44271;DHT22;29963;44.594;11.368;2022-09-16T08:57:55;26.80;99.90
44271;DHT22;29963;44.594;11.368;2022-09-16T09:00:22;26.90;99.90
44271;DHT22;29963;44.594;11.368;2022-09-16T09:05:51;26.90;99.90
44271;DHT22;29963;44.594;11.368;2022-09-16T09:10:55;27.00;99.90
44271;DHT22;29963;44.594;11.368;2022-09-16T09:25:07;27.10;99.90
44271;DHT22;29963;44.594;11.368;2022-09-16T09:30:16;27.00;99.90
44271;DHT22;29963;44.594;11.368;2022-09-16T09:33:13;27.10;99.90
44271;DHT22;29963;44.594;11.368;2022-09-16T09:40:58;27.30;99.90
44271;DHT22;29963;44.594;11.368;2022-09-16T09:43:45;27.30;99.90
44271;DHT22;29963;44.594;11.368;2022-09-16T09:46:55;27.40;99.80
44271;DHT22;29963;44.594;11.368;2022-09-16T09:49:14;27.40;99.60
44271;DHT22;29963;44.594;11.368;2022-09-16T09:51:48;27.40;99.60
44271;DHT22;29963;44.594;11.368;2022-09-16T09:56:54;27.50;99.50
44271;DHT22;29963;44.594;11.368;2022-09-16T10:02:34;27.60;99.70
44271;DHT22;29963;44.594;11.368;2022-09-16T10:05:01;27.60;99.50
44271;DHT22;29963;44.594;11.368;2022-09-16T10:07:27;27.70;99.10
44271;DHT22;29963;44.594;11.368;2022-09-16T10:10:14;27.70;99.10
44271;DHT22;29963;44.594;11.368;2022-09-16T10:12:40;27.80;99.00
44271;DHT22;29963;44.594;11.368;2022-09-16T10:15:25;27.80;98.90
44271;DHT22;29963;44.594;11.368;2022-09-16T10:17:52;27.80;98.60
44271;DHT22;29963;44.594;11.368;2022-09-16T10:20:39;27.80;98.70
44271;DHT22;29963;44.594;11.368;2022-09-16T10:23:13;27.80;98.80
44271;DHT22;29963;44.594;11.368;2022-09-16T10:25:39;27.90;98.70
44271;DHT22;29963;44.594;11.368;2022-09-16T10:28:20;27.90;98.80
44271;DHT22;29963;44.594;11.368;2022-09-16T10:30:55;28.10;98.60
44271;DHT22;29963;44.594;11.368;2022-09-16T10:33:25;28.10;99.00
44271;DHT22;29963;44.594;11.368;2022-09-16T10:36:04;28.20;98.60
44271;DHT22;29963;44.594;11.368;2022-09-16T10:38:39;28.20;98.60
44271;DHT22;29963;44.594;11.368;2022-09-16T10:43:36;28.20;98.60
44271;DHT22;29963;44.594;11.368;2022-09-16T10:46:04;28.30;98.00
44271;DHT22;29963;44.594;11.368;2022-09-16T10:48:30;28.20;97.60
44271;DHT22;29963;44.594;11.368;2022-09-16T10:51:03;28.20;97.50
44271;DHT22;29963;44.594;11.368;2022-09-16T10:53:36;28.30;97.90
44271;DHT22;29963;44.594;11.368;2022-09-16T10:56:15;28.40;98.30
44271;DHT22;29963;44.594;11.368;2022-09-16T10:58:41;28.40;98.00
44271;DHT22;29963;44.594;11.368;2022-09-16T11:09:27;28.50;98.00
44271;DHT22;29963;44.594;11.368;2022-09-16T11:17:23;28.70;97.50
44271;DHT22;29963;44.594;11.368;2022-09-16T11:22:46;28.80;97.30
44271;DHT22;29963;44.594;11.368;2022-09-16T11:43:08;29.10;97.10
44271;DHT22;29963;44.594;11.368;2022-09-16T11:46:01;29.10;96.20
44271;DHT22;29963;44.594;11.368;2022-09-16T11:48:34;29.20;96.70
44271;DHT22;29963;44.594;11.368;2022-09-16T11:53:42;29.30;96.50
44271;DHT22;29963;44.594;11.368;2022-09-16T11:56:18;29.30;95.90
44271;DHT22;29963;44.594;11.368;2022-09-16T11:58:54;29.20;96.50
44271;DHT22;29963;44.594;11.368;2022-09-16T12:09:26;29.50;96.00
44271;DHT22;29963;44.594;11.368;2022-09-16T12:11:59;29.60;95.90
44271;DHT22;29963;44.594;11.368;2022-09-16T12:14:34;29.60;95.70
44271;DHT22;29963;44.594;11.368;2022-09-16T12:17:12;29.50;95.60
44271;DHT22;29963;44.594;11.368;2022-09-16T12:22:20;29.40;95.70
44271;DHT22;29963;44.594;11.368;2022-09-16T12:25:19;29.40;95.90
44271;DHT22;29963;44.594;11.368;2022-09-16T12:27:56;29.50;95.80
44271;DHT22;29963;44.594;11.368;2022-09-16T12:30:33;29.50;95.70
44271;DHT22;29963;44.594;11.368;2022-09-16T12:38:22;29.40;95.30
44271;DHT22;29963;44.594;11.368;2022-09-16T12:49:43;29.50;95.60
44271;DHT22;29963;44.594;11.368;2022-09-16T13:00:44;30.00;95.30
44271;DHT22;29963;44.594;11.368;2022-09-16T13:03:19;30.10;95.20
44271;DHT22;29963;44.594;11.368;2022-09-16T13:05:48;30.10;94.90
44271;DHT22;29963;44.594;11.368;2022-09-16T13:08:20;30.10;94.50
44271;DHT22;29963;44.594;11.368;2022-09-16T13:10:55;30.20;94.40
44271;DHT22;29963;44.594;11.368;2022-09-16T13:13:42;30.30;94.40
44271;DHT22;29963;44.594;11.368;2022-09-16T13:16:10;30.30;93.90
44271;DHT22;29963;44.594;11.368;2022-09-16T13:21:39;30.40;93.90
44271;DHT22;29963;44.594;11.368;2022-09-16T13:24:23;30.60;93.30
44271;DHT22;29963;44.594;11.368;2022-09-16T13:26:49;30.80;92.60
44271;DHT22;29963;44.594;11.368;2022-09-16T13:32:02;30.90;92.00
44271;DHT22;29963;44.594;11.368;2022-09-16T13:34:28;31.10;92.50
44271;DHT22;29963;44.594;11.368;2022-09-16T13:36:54;31.30;92.70
44271;DHT22;29963;44.594;11.368;2022-09-16T13:39:31;31.40;91.40
44271;DHT22;29963;44.594;11.368;2022-09-16T13:42:18;31.30;91.00
44271;DHT22;29963;44.594;11.368;2022-09-16T13:44:49;31.30;90.70
44271;DHT22;29963;44.594;11.368;2022-09-16T13:47:17;31.10;91.20
44271;DHT22;29963;44.594;11.368;2022-09-16T13:49:56;31.10;91.20
44271;DHT22;29963;44.594;11.368;2022-09-16T13:52:32;31.00;91.40
44271;DHT22;29963;44.594;11.368;2022-09-16T13:55:04;31.00;91.80
44271;DHT22;29963;44.594;11.368;2022-09-16T14:00:25;31.30;87.60
44271;DHT22;29963;44.594;11.368;2022-09-16T14:03:21;31.40;85.00
44271;DHT22;29963;44.594;11.368;2022-09-16T14:08:51;31.70;82.30
44271;DHT22;29963;44.594;11.368;2022-09-16T14:11:25;31.80;80.30
44271;DHT22;29963;44.594;11.368;2022-09-16T14:14:09;31.90;80.50
44271;DHT22;29963;44.594;11.368;2022-09-16T14:16:40;32.10;82.30
44271;DHT22;29963;44.594;11.368;2022-09-16T14:19:07;32.30;76.50
44271;DHT22;29963;44.594;11.368;2022-09-16T14:21:37;32.10;74.50
44271;DHT22;29963;44.594;11.368;2022-09-16T14:24:17;32.00;74.30
44271;DHT22;29963;44.594;11.368;2022-09-16T14:26:55;31.70;74.00
44271;DHT22;29963;44.594;11.368;2022-09-16T14:29:21;31.50;75.50
44271;DHT22;29963;44.594;11.368;2022-09-16T14:31:47;31.40;77.20
44271;DHT22;29963;44.594;11.368;2022-09-16T14:34:28;31.10;76.80
44271;DHT22;29963;44.594;11.368;2022-09-16T14:36:55;31.00;77.80
44271;DHT22;29963;44.594;11.368;2022-09-16T14:39:22;31.10;77.20
44271;DHT22;29963;44.594;11.368;2022-09-16T14:42:06;31.30;75.90
44271;DHT22;29963;44.594;11.368;2022-09-16T14:47:35;32.40;72.50
44271;DHT22;29963;44.594;11.368;2022-09-16T14:50:11;33.10;70.30
44271;DHT22;29963;44.594;11.368;2022-09-16T14:52:38;33.80;69.40
44271;DHT22;29963;44.594;11.368;2022-09-16T14:55:13;34.40;67.90
44271;DHT22;29963;44.594;11.368;2022-09-16T14:57:43;34.90;64.20
44271;DHT22;29963;44.594;11.368;2022-09-16T15:00:13;35.20;63.20
44271;DHT22;29963;44.594;11.368;2022-09-16T15:05:34;36.30;59.80
44271;DHT22;29963;44.594;11.368;2022-09-16T15:08:22;36.80;58.70
44271;DHT22;29963;44.594;11.368;2022-09-16T15:10:53;36.90;57.00
44271;DHT22;29963;44.594;11.368;2022-09-16T15:13:23;37.30;56.70
44271;DHT22;29963;44.594;11.368;2022-09-16T15:15:56;37.60;57.90
44271;DHT22;29963;44.594;11.368;2022-09-16T15:18:26;38.00;57.00
44271;DHT22;29963;44.594;11.368;2022-09-16T15:21:18;37.10;57.60
44271;DHT22;29963;44.594;11.368;2022-09-16T15:23:53;36.60;58.00
44271;DHT22;29963;44.594;11.368;2022-09-16T15:26:22;36.70;58.00
44271;DHT22;29963;44.594;11.368;2022-09-16T15:31:30;37.20;56.20
44271;DHT22;29963;44.594;11.368;2022-09-16T15:33:58;37.20;56.20
44271;DHT22;29963;44.594;11.368;2022-09-16T15:39:01;36.70;57.10
44271;DHT22;29963;44.594;11.368;2022-09-16T15:41:27;36.50;56.40
44271;DHT22;29963;44.594;11.368;2022-09-16T15:43:57;36.00;57.30
44271;DHT22;29963;44.594;11.368;2022-09-16T15:46:23;35.60;57.90
44271;DHT22;29963;44.594;11.368;2022-09-16T15:48:55;35.30;59.30
44271;DHT22;29963;44.594;11.368;2022-09-16T15:54:37;35.40;58.20
44271;DHT22;29963;44.594;11.368;2022-09-16T15:57:10;35.40;58.40
44271;DHT22;29963;44.594;11.368;2022-09-16T16:00:07;35.30;58.70
44271;DHT22;29963;44.594;11.368;2022-09-16T16:02:44;35.50;59.10
44271;DHT22;29963;44.594;11.368;2022-09-16T16:05:14;35.60;58.40
44271;DHT22;29963;44.594;11.368;2022-09-16T16:07:46;35.60;59.80
44271;DHT22;29963;44.594;11.368;2022-09-16T16:10:16;36.00;58.70
44271;DHT22;29963;44.594;11.368;2022-09-16T16:12:43;36.00;59.00
44271;DHT22;29963;44.594;11.368;2022-09-16T16:15:39;35.50;59.20
44271;DHT22;29963;44.594;11.368;2022-09-16T16:18:06;35.10;60.70
44271;DHT22;29963;44.594;11.368;2022-09-16T16:20:33;34.40;61.60
44271;DHT22;29963;44.594;11.368;2022-09-16T16:23:00;34.70;62.00
44271;DHT22;29963;44.594;11.368;2022-09-16T16:25:26;35.00;61.10
44271;DHT22;29963;44.594;11.368;2022-09-16T16:27:52;34.90;61.50
44271;DHT22;29963;44.594;11.368;2022-09-16T16:30:18;34.50;60.90
44271;DHT22;29963;44.594;11.368;2022-09-16T16:32:44;33.80;62.40
44271;DHT22;29963;44.594;11.368;2022-09-16T16:35:11;33.00;64.50
44271;DHT22;29963;44.594;11.368;2022-09-16T16:37:37;32.60;65.40
44271;DHT22;29963;44.594;11.368;2022-09-16T16:40:04;32.40;65.80
44271;DHT22;29963;44.594;11.368;2022-09-16T16:42:30;31.80;67.10
44271;DHT22;29963;44.594;11.368;2022-09-16T16:44:56;31.30;68.50
44271;DHT22;29963;44.594;11.368;2022-09-16T16:47:22;30.80;70.20
44271;DHT22;29963;44.594;11.368;2022-09-16T16:49:48;30.80;70.60
44271;DHT22;29963;44.594;11.368;2022-09-16T16:52:15;31.00;71.10
44271;DHT22;29963;44.594;11.368;2022-09-16T16:54:40;30.80;71.10
44271;DHT22;29963;44.594;11.368;2022-09-16T16:57:08;30.50;71.70
44271;DHT22;29963;44.594;11.368;2022-09-16T16:59:34;30.10;73.60
44271;DHT22;29963;44.594;11.368;2022-09-16T17:02:00;29.70;74.60
44271;DHT22;29963;44.594;11.368;2022-09-16T17:04:25;29.50;75.40
44271;DHT22;29963;44.594;11.368;2022-09-16T17:06:51;29.30;75.90
44271;DHT22;29963;44.594;11.368;2022-09-16T17:09:17;28.90;77.10
44271;DHT22;29963;44.594;11.368;2022-09-16T17:11:57;28.70;78.20
44271;DHT22;29963;44.594;11.368;2022-09-16T17:14:25;28.60;78.80
44271;DHT22;29963;44.594;11.368;2022-09-16T17:16:52;28.30;80.00
44271;DHT22;29963;44.594;11.368;2022-09-16T17:19:20;28.10;81.40
44271;DHT22;29963;44.594;11.368;2022-09-16T17:21:46;27.90;82.40
44271;DHT22;29963;44.594;11.368;2022-09-16T17:24:15;27.80;83.10
44271;DHT22;29963;44.594;11.368;2022-09-16T17:26:40;27.80;83.60
44271;DHT22;29963;44.594;11.368;2022-09-16T17:29:06;27.80;84.40
44271;DHT22;29963;44.594;11.368;2022-09-16T17:31:33;27.70;85.10
44271;DHT22;29963;44.594;11.368;2022-09-16T17:34:01;27.50;85.50
44271;DHT22;29963;44.594;11.368;2022-09-16T17:36:33;27.50;86.10
44271;DHT22;29963;44.594;11.368;2022-09-16T17:39:05;27.40;86.80
44271;DHT22;29963;44.594;11.368;2022-09-16T17:41:31;27.30;87.90
44271;DHT22;29963;44.594;11.368;2022-09-16T17:43:58;27.30;88.90
44271;DHT22;29963;44.594;11.368;2022-09-16T17:46:25;27.20;89.60
44271;DHT22;29963;44.594;11.368;2022-09-16T17:49:07;27.20;90.00
44271;DHT22;29963;44.594;11.368;2022-09-16T17:51:35;27.10;90.40
44271;DHT22;29963;44.594;11.368;2022-09-16T17:54:01;27.10;90.60
44271;DHT22;29963;44.594;11.368;2022-09-16T17:56:33;27.00;90.90
44271;DHT22;29963;44.594;11.368;2022-09-16T17:58:58;27.00;91.20
44271;DHT22;29963;44.594;11.368;2022-09-16T18:01:25;26.80;91.60
44271;DHT22;29963;44.594;11.368;2022-09-16T18:03:53;26.70;92.00
44271;DHT22;29963;44.594;11.368;2022-09-16T18:06:41;26.70;92.10
44271;DHT22;29963;44.594;11.368;2022-09-16T18:09:07;26.70;92.20
44271;DHT22;29963;44.594;11.368;2022-09-16T18:11:33;26.50;92.70
44271;DHT22;29963;44.594;11.368;2022-09-16T18:14:01;26.50;92.90
44271;DHT22;29963;44.594;11.368;2022-09-16T18:16:28;26.40;93.20
44271;DHT22;29963;44.594;11.368;2022-09-16T18:18:57;26.50;93.30
44271;DHT22;29963;44.594;11.368;2022-09-16T18:21:27;26.40;93.50
44271;DHT22;29963;44.594;11.368;2022-09-16T18:24:00;26.30;93.70
44271;DHT22;29963;44.594;11.368;2022-09-16T18:26:27;26.30;93.90
44271;DHT22;29963;44.594;11.368;2022-09-16T18:28:54;26.20;94.00
44271;DHT22;29963;44.594;11.368;2022-09-16T18:31:23;26.20;94.10
44271;DHT22;29963;44.594;11.368;2022-09-16T18:33:50;26.20;94.30
44271;DHT22;29963;44.594;11.368;2022-09-16T18:36:16;26.30;94.30
44271;DHT22;29963;44.594;11.368;2022-09-16T18:38:43;26.20;94.40
44271;DHT22;29963;44.594;11.368;2022-09-16T18:43:35;26.20;94.70